Time;durP1;ratioP1;P1;durP2;ratioP2;P2;SDS_P1;SDS_P2;PMS_P1;PMS_P2;Temp;Humidity;BMP_temperature;BMP_pressure;BME280_temperature;BME280_humidity;BME280_pressure;Samples;Min_cycle;Max_cycle;Signal;HPM_P1;HPM_P2
2021/09/28 00:00:28;;;;;;;;;2.25;2.25;;;;;;;;5064772;28;45870;-84
2021/09/28 00:02:54;;;;;;;;;3.00;3.00;;;;;;;;5082935;28;45386;-84
2021/09/28 00:05:19;;;;;;;;;1.00;1.00;;;;;;;;5083397;28;45317;-84
2021/09/28 00:07:44;;;;;;;;;2.00;2.00;;;;;;;;5083063;28;45252;-84
2021/09/28 00:10:10;;;;;;;;;5.75;2.25;;;;;;;;5082974;28;46227;-84
2021/09/28 00:12:35;;;;;;;;;5.00;3.00;;;;;;;;5081929;28;45320;-84
2021/09/28 00:15:00;;;;;;;;;5.00;3.00;;;;;;;;5083227;28;45441;-84
2021/09/28 00:17:25;;;;;;;;;4.67;3.00;;;;;;;;5064460;28;45437;-84
2021/09/28 00:19:51;;;;;;;;;3.00;3.00;;;;;;;;5083000;28;45453;-84
2021/09/28 00:22:16;;;;;;;;;5.00;3.00;;;;;;;;5082493;28;45557;-84
2021/09/28 00:24:41;;;;;;;;;3.00;3.00;;;;;;;;5086260;28;45248;-84
2021/09/28 00:27:06;;;;;;;;;6.00;4.00;;;;;;;;5067162;28;45434;-84
2021/09/28 00:29:32;;;;;;;;;5.00;3.75;;;;;;;;5087218;28;45329;-84
2021/09/28 00:31:57;;;;;;;;;3.50;3.00;;;;;;;;5085421;28;45212;-84
2021/09/28 00:34:22;;;;;;;;;2.75;2.75;;;;;;;;5070055;28;45386;-84
2021/09/28 00:36:47;;;;;;;;;6.00;3.00;;;;;;;;5068983;28;45484;-84
2021/09/28 00:39:13;;;;;;;;;2.67;2.00;;;;;;;;5070341;28;46908;-83
2021/09/28 00:41:38;;;;;;;;;2.00;2.00;;;;;;;;5070413;28;44771;-84
2021/09/28 00:44:03;;;;;;;;;3.50;2.00;;;;;;;;5086628;28;45409;-84
2021/09/28 00:46:28;;;;;;;;;4.00;2.50;;;;;;;;5071171;28;45350;-84
2021/09/28 00:48:54;;;;;;;;;2.00;2.00;;;;;;;;5085127;28;45414;-84
2021/09/28 00:51:19;;;;;;;;;5.25;3.00;;;;;;;;5085605;28;45395;-84
2021/09/28 00:53:46;;;;;;;;;3.25;3.25;;;;;;;;5064121;28;45327;-84
2021/09/28 00:56:16;;;;;;;;;6.25;4.25;;;;;;;;5082073;28;45372;-84
2021/09/28 00:58:42;;;;;;;;;4.00;3.00;;;;;;;;5081651;28;45455;-84
2021/09/28 01:01:08;;;;;;;;;2.25;2.25;;;;;;;;5063968;28;45428;-84
2021/09/28 01:03:34;;;;;;;;;3.50;3.25;;;;;;;;5081782;28;45441;-84
2021/09/28 01:06:00;;;;;;;;;3.50;3.50;;;;;;;;5082171;28;45382;-84
2021/09/28 01:08:26;;;;;;;;;4.00;3.75;;;;;;;;5081539;28;45458;-84
2021/09/28 01:10:51;;;;;;;;;2.00;0.75;;;;;;;;5084648;28;45224;-83
2021/09/28 01:13:16;;;;;;;;;8.00;4.00;;;;;;;;5086158;28;45420;-84
2021/09/28 01:15:48;;;;;;;;;4.25;3.00;;;;;;;;5083937;28;45157;-84
2021/09/28 01:18:13;;;;;;;;;6.00;4.00;;;;;;;;5081799;28;45342;-84
2021/09/28 01:20:38;;;;;;;;;5.33;4.00;;;;;;;;5081828;28;45390;-84
2021/09/28 01:23:03;;;;;;;;;7.33;5.00;;;;;;;;5062952;28;45301;-84
2021/09/28 01:25:31;;;;;;;;;5.67;5.00;;;;;;;;5081769;28;45307;-84
2021/09/28 01:27:56;;;;;;;;;8.25;5.00;;;;;;;;5081222;28;45420;-84
2021/09/28 01:30:21;;;;;;;;;5.75;5.25;;;;;;;;5063531;28;45418;-84
2021/09/28 01:32:46;;;;;;;;;6.67;5.33;;;;;;;;5063419;28;45318;-84
2021/09/28 01:35:12;;;;;;;;;7.33;5.33;;;;;;;;5081496;28;45263;-84
2021/09/28 01:37:37;;;;;;;;;6.25;5.00;;;;;;;;5062689;28;48487;-84
2021/09/28 01:40:02;;;;;;;;;8.00;5.00;;;;;;;;5063251;28;46339;-84
2021/09/28 01:42:27;;;;;;;;;8.00;6.00;;;;;;;;5063035;28;45422;-84
2021/09/28 01:44:53;;;;;;;;;6.33;5.00;;;;;;;;5081708;28;45212;-84
2021/09/28 01:47:18;;;;;;;;;6.00;6.00;;;;;;;;5062753;28;48107;-84
2021/09/28 01:49:43;;;;;;;;;7.00;7.00;;;;;;;;5061413;28;45226;-84
2021/09/28 01:52:08;;;;;;;;;7.25;6.00;;;;;;;;5081252;28;45365;-84
2021/09/28 01:54:34;;;;;;;;;7.25;5.25;;;;;;;;5080764;28;45228;-84
2021/09/28 01:56:59;;;;;;;;;9.00;7.00;;;;;;;;5081919;28;46493;-84
2021/09/28 01:59:24;;;;;;;;;7.00;7.00;;;;;;;;5085225;28;45214;-84
2021/09/28 02:01:49;;;;;;;;;8.33;5.67;;;;;;;;5082046;28;45145;-84
2021/09/28 02:04:15;;;;;;;;;8.00;8.00;;;;;;;;5063022;28;45560;-84
2021/09/28 02:06:40;;;;;;;;;8.00;5.00;;;;;;;;5081139;28;45575;-84
2021/09/28 02:09:06;;;;;;;;;5.50;5.00;;;;;;;;5062368;28;46971;-84
2021/09/28 02:11:32;;;;;;;;;6.75;5.00;;;;;;;;5080737;28;45638;-84
2021/09/28 02:13:58;;;;;;;;;6.75;6.00;;;;;;;;5062505;28;45595;-83
2021/09/28 02:16:23;;;;;;;;;8.50;7.75;;;;;;;;5081206;28;45481;-84
2021/09/28 02:18:48;;;;;;;;;5.00;5.00;;;;;;;;5080270;28;45401;-84
2021/09/28 02:21:13;;;;;;;;;7.67;5.67;;;;;;;;5080452;28;45433;-84
2021/09/28 02:23:38;;;;;;;;;5.67;5.00;;;;;;;;5062455;28;45378;-84
2021/09/28 02:26:04;;;;;;;;;5.67;5.00;;;;;;;;5080628;28;45453;-84
2021/09/28 02:28:29;;;;;;;;;12.00;8.00;;;;;;;;5062333;28;45595;-84
2021/09/28 02:30:54;;;;;;;;;5.00;4.00;;;;;;;;5080965;28;45301;-84
2021/09/28 02:33:19;;;;;;;;;6.00;6.00;;;;;;;;5080170;28;45333;-84
2021/09/28 02:35:45;;;;;;;;;6.33;6.33;;;;;;;;5080434;28;46039;-84
2021/09/28 02:38:11;;;;;;;;;5.00;5.00;;;;;;;;5062476;28;45176;-84
2021/09/28 02:40:36;;;;;;;;;7.75;6.25;;;;;;;;5082962;28;45743;-84
2021/09/28 02:43:01;;;;;;;;;5.50;5.00;;;;;;;;5082225;28;45208;-84
2021/09/28 02:45:27;;;;;;;;;6.00;6.00;;;;;;;;5062405;28;46946;-84
2021/09/28 02:47:52;;;;;;;;;7.25;6.00;;;;;;;;5080313;28;45351;-84
2021/09/28 02:50:17;;;;;;;;;7.00;7.00;;;;;;;;5078563;28;45471;-84
2021/09/28 02:52:42;;;;;;;;;7.00;6.67;;;;;;;;5080460;28;45452;-84
2021/09/28 02:55:08;;;;;;;;;5.33;2.33;;;;;;;;5080068;28;45166;-84
2021/09/28 02:57:33;;;;;;;;;6.75;5.00;;;;;;;;5080014;28;45253;-84
2021/09/28 02:59:58;;;;;;;;;8.50;6.75;;;;;;;;5062204;28;45165;-84
2021/09/28 03:02:24;;;;;;;;;5.00;5.00;;;;;;;;5061898;28;45328;-84
2021/09/28 03:04:49;;;;;;;;;5.00;5.00;;;;;;;;5079990;28;45416;-84
2021/09/28 03:07:14;;;;;;;;;9.00;5.00;;;;;;;;5063241;28;45347;-84
2021/09/28 03:09:40;;;;;;;;;5.25;5.25;;;;;;;;5065652;28;45194;-84
2021/09/28 03:12:05;;;;;;;;;6.67;5.00;;;;;;;;5089420;28;45257;-84
2021/09/28 03:14:31;;;;;;;;;8.50;5.00;;;;;;;;5081622;28;48185;-83
2021/09/28 03:16:56;;;;;;;;;7.00;5.67;;;;;;;;5100721;28;45374;-83
2021/09/28 03:19:21;;;;;;;;;6.75;5.00;;;;;;;;5069878;28;45476;-84
2021/09/28 03:21:47;;;;;;;;;6.25;4.75;;;;;;;;5085611;28;45427;-84
2021/09/28 03:24:12;;;;;;;;;7.00;5.75;;;;;;;;5086164;28;45430;-84
2021/09/28 03:26:37;;;;;;;;;8.50;5.00;;;;;;;;5087666;28;45330;-84
2021/09/28 03:29:03;;;;;;;;;8.00;5.00;;;;;;;;5087576;28;45397;-84
2021/09/28 03:31:28;;;;;;;;;5.00;5.00;;;;;;;;5084720;28;45419;-84
2021/09/28 03:33:53;;;;;;;;;5.00;5.00;;;;;;;;5083608;28;45474;-84
2021/09/28 03:36:19;;;;;;;;;7.00;5.75;;;;;;;;5083400;28;45361;-83
2021/09/28 03:38:44;;;;;;;;;9.75;6.25;;;;;;;;5083539;28;45237;-84
2021/09/28 03:41:09;;;;;;;;;5.50;5.00;;;;;;;;5083240;28;45425;-84
2021/09/28 03:43:34;;;;;;;;;5.00;4.00;;;;;;;;5083172;28;46150;-84
2021/09/28 03:46:00;;;;;;;;;6.33;4.00;;;;;;;;5082981;28;45284;-84
2021/09/28 03:48:25;;;;;;;;;3.00;3.00;;;;;;;;5083471;28;45343;-84
2021/09/28 03:50:50;;;;;;;;;7.75;7.75;;;;;;;;5083065;28;45424;-84
2021/09/28 03:53:16;;;;;;;;;7.50;5.00;;;;;;;;5083052;28;45510;-84
2021/09/28 03:55:41;;;;;;;;;5.75;5.75;;;;;;;;5082891;28;45409;-84
2021/09/28 03:58:07;;;;;;;;;7.33;5.00;;;;;;;;5083002;28;45385;-84
2021/09/28 04:00:33;;;;;;;;;7.75;5.50;;;;;;;;5082891;28;45457;-84
2021/09/28 04:02:58;;;;;;;;;7.00;7.00;;;;;;;;5064485;28;45928;-84
2021/09/28 04:05:23;;;;;;;;;8.33;5.67;;;;;;;;5082644;28;45623;-84
2021/09/28 04:07:49;;;;;;;;;8.33;5.33;;;;;;;;5083220;28;45379;-84
2021/09/28 04:10:14;;;;;;;;;8.00;4.67;;;;;;;;5065530;28;45594;-84
2021/09/28 04:12:40;;;;;;;;;7.50;4.00;;;;;;;;5086732;28;46291;-84
2021/09/28 04:15:05;;;;;;;;;4.25;4.25;;;;;;;;5067774;28;45182;-84
2021/09/28 04:17:31;;;;;;;;;6.50;5.50;;;;;;;;5064453;28;45375;-84
2021/09/28 04:19:56;;;;;;;;;5.50;5.00;;;;;;;;5082815;28;45390;-84
2021/09/28 04:22:22;;;;;;;;;7.00;4.33;;;;;;;;5082222;28;46392;-83
2021/09/28 04:24:49;;;;;;;;;7.00;5.50;;;;;;;;5082732;28;45366;-84
2021/09/28 04:27:14;;;;;;;;;5.00;5.00;;;;;;;;5064338;28;45387;-83
2021/09/28 04:29:39;;;;;;;;;7.50;5.00;;;;;;;;5064304;28;45417;-83
2021/09/28 04:32:05;;;;;;;;;5.33;4.00;;;;;;;;5064250;28;47368;-84
2021/09/28 04:34:30;;;;;;;;;6.50;3.50;;;;;;;;5082238;28;45510;-83
2021/09/28 04:36:55;;;;;;;;;6.00;4.00;;;;;;;;5082482;28;45474;-83
2021/09/28 04:39:21;;;;;;;;;5.00;3.50;;;;;;;;5064232;28;45265;-84
2021/09/28 04:41:46;;;;;;;;;4.00;4.00;;;;;;;;5082324;28;45347;-83
2021/09/28 04:44:11;;;;;;;;;4.00;4.00;;;;;;;;5082201;28;45340;-83
2021/09/28 04:46:36;;;;;;;;;7.00;4.67;;;;;;;;5082450;28;45568;-83
2021/09/28 04:49:02;;;;;;;;;5.00;4.00;;;;;;;;5080985;28;45142;-84
2021/09/28 04:51:27;;;;;;;;;4.50;3.75;;;;;;;;5082774;28;46479;-84
2021/09/28 04:53:52;;;;;;;;;5.67;3.00;;;;;;;;5083479;28;45181;-84
2021/09/28 04:56:18;;;;;;;;;4.75;4.00;;;;;;;;5081304;28;45134;-84
2021/09/28 04:58:43;;;;;;;;;4.75;4.75;;;;;;;;5063696;28;45260;-84
2021/09/28 05:01:08;;;;;;;;;4.33;3.00;;;;;;;;5083479;28;45333;-84
2021/09/28 05:03:33;;;;;;;;;3.33;3.33;;;;;;;;5081696;28;45322;-84
2021/09/28 05:05:59;;;;;;;;;3.00;3.00;;;;;;;;5082181;28;45439;-85
2021/09/28 05:08:24;;;;;;;;;5.25;3.75;;;;;;;;5064015;28;46181;-85
2021/09/28 05:10:49;;;;;;;;;3.00;3.00;;;;;;;;5081571;28;46225;-85
2021/09/28 05:13:15;;;;;;;;;3.25;3.00;;;;;;;;5055728;28;46222;-85
2021/09/28 05:15:40;;;;;;;;;3.00;3.00;;;;;;;;5081559;27;45392;-83
2021/09/28 05:18:08;;;;;;;;;3.00;3.00;;;;;;;;5084146;28;45270;-84
2021/09/28 05:20:35;;;;;;;;;5.00;3.00;;;;;;;;5048134;28;48221;-84
2021/09/28 05:23:00;;;;;;;;;3.25;3.00;;;;;;;;5058959;28;46059;-83
2021/09/28 05:25:27;;;;;;;;;3.50;2.75;;;;;;;;5083852;27;45210;-82
2021/09/28 05:27:52;;;;;;;;;3.50;3.00;;;;;;;;5089677;27;45442;-82
2021/09/28 05:30:17;;;;;;;;;3.00;3.00;;;;;;;;5086496;27;45982;-82
2021/09/28 05:32:42;;;;;;;;;5.00;4.00;;;;;;;;5090623;27;45345;-83
2021/09/28 05:35:08;;;;;;;;;4.00;3.00;;;;;;;;5087055;27;45563;-83
2021/09/28 05:37:34;;;;;;;;;3.75;3.00;;;;;;;;5082563;28;45480;-82
2021/09/28 05:39:59;;;;;;;;;3.25;3.00;;;;;;;;5075137;27;46749;-84
2021/09/28 05:42:24;;;;;;;;;4.00;3.00;;;;;;;;5085854;27;45219;-85
2021/09/28 05:44:50;;;;;;;;;6.00;3.33;;;;;;;;5084027;27;45196;-82
2021/09/28 05:47:15;;;;;;;;;3.50;2.25;;;;;;;;5062713;28;45748;-81
2021/09/28 05:49:40;;;;;;;;;4.00;2.00;;;;;;;;5081495;27;46239;-82
2021/09/28 05:52:08;;;;;;;;;2.75;2.75;;;;;;;;5077504;28;45381;-82
2021/09/28 05:54:39;;;;;;;;;7.25;3.00;;;;;;;;5084682;27;45662;-82
2021/09/28 05:57:04;;;;;;;;;5.00;2.25;;;;;;;;5094977;27;45303;-83
2021/09/28 05:59:30;;;;;;;;;6.25;3.50;;;;;;;;5082936;27;46258;-83
2021/09/28 06:01:56;;;;;;;;;5.75;3.00;;;;;;;;5081996;27;45455;-84
2021/09/28 06:04:21;;;;;;;;;4.33;3.33;;;;;;;;5062809;28;45450;-83
2021/09/28 06:06:46;;;;;;;;;3.00;3.00;;;;;;;;5080952;27;45416;-83
2021/09/28 06:09:11;;;;;;;;;3.50;3.50;;;;;;;;5089415;27;45730;-83
2021/09/28 06:11:37;;;;;;;;;5.00;4.50;;;;;;;;5062300;28;45410;-83
2021/09/28 06:14:02;;;;;;;;;5.00;3.33;;;;;;;;5062585;28;45423;-83
2021/09/28 06:16:27;;;;;;;;;7.50;5.00;;;;;;;;5074360;27;45621;-83
2021/09/28 06:18:52;;;;;;;;;4.50;4.00;;;;;;;;5092970;27;46328;-85
2021/09/28 06:21:18;;;;;;;;;9.67;5.00;;;;;;;;5093885;27;45439;-88
2021/09/28 06:23:43;;;;;;;;;6.00;5.00;;;;;;;;5071196;27;45533;-90
2021/09/28 06:26:08;;;;;;;;;6.00;4.67;;;;;;;;5072224;28;45972;-85
2021/09/28 06:28:35;;;;;;;;;4.00;3.33;;;;;;;;5083995;28;45402;-86
2021/09/28 06:31:01;;;;;;;;;6.00;5.00;;;;;;;;5063980;28;45258;-86
2021/09/28 06:33:26;;;;;;;;;7.50;5.00;;;;;;;;5062943;28;45428;-87
2021/09/28 06:35:51;;;;;;;;;5.67;5.33;;;;;;;;5063803;28;45312;-93
2021/09/28 06:38:16;;;;;;;;;6.00;6.00;;;;;;;;5069197;28;47072;-83
2021/09/28 06:40:42;;;;;;;;;5.00;3.67;;;;;;;;5063235;28;45422;-83
2021/09/28 06:43:07;;;;;;;;;10.25;7.25;;;;;;;;5082969;28;45438;-86
2021/09/28 06:45:35;;;;;;;;;7.00;6.50;;;;;;;;5085520;28;45403;-88
2021/09/28 06:48:00;;;;;;;;;9.75;6.75;;;;;;;;5088221;28;45375;-83
2021/09/28 06:50:26;;;;;;;;;10.50;7.75;;;;;;;;5063648;28;45424;-83
2021/09/28 06:52:52;;;;;;;;;8.33;6.67;;;;;;;;5082179;28;45366;-84
2021/09/28 06:55:17;;;;;;;;;9.75;6.75;;;;;;;;5081034;28;45464;-84
2021/09/28 06:57:43;;;;;;;;;11.25;7.25;;;;;;;;5062073;28;48130;-84
2021/09/28 07:00:08;;;;;;;;;9.50;9.00;;;;;;;;5062664;28;46288;-84
2021/09/28 07:02:33;;;;;;;;;10.25;7.75;;;;;;;;5062427;28;45265;-84
2021/09/28 07:04:59;;;;;;;;;10.00;8.00;;;;;;;;5062569;28;45437;-84
2021/09/28 07:07:25;;;;;;;;;9.25;8.25;;;;;;;;5062216;28;47215;-83
2021/09/28 07:09:50;;;;;;;;;8.75;6.75;;;;;;;;5064073;28;45418;-84
2021/09/28 07:12:15;;;;;;;;;12.00;7.75;;;;;;;;5081858;28;45429;-84
2021/09/28 07:14:41;;;;;;;;;10.75;8.00;;;;;;;;5080371;28;45224;-84
2021/09/28 07:17:06;;;;;;;;;11.00;8.25;;;;;;;;5080085;28;45331;-84
2021/09/28 07:19:31;;;;;;;;;10.67;7.33;;;;;;;;5080186;28;45208;-84
2021/09/28 07:21:56;;;;;;;;;7.33;6.00;;;;;;;;5061817;28;45406;-84
2021/09/28 07:24:22;;;;;;;;;8.33;7.00;;;;;;;;5061659;28;45972;-84
2021/09/28 07:26:47;;;;;;;;;8.67;5.67;;;;;;;;5081074;28;45287;-84
2021/09/28 07:29:12;;;;;;;;;11.00;6.33;;;;;;;;5079822;28;45291;-84
2021/09/28 07:31:37;;;;;;;;;7.67;7.00;;;;;;;;5062129;28;45264;-84
2021/09/28 07:34:03;;;;;;;;;11.50;6.50;;;;;;;;5079962;28;45247;-84
2021/09/28 07:36:28;;;;;;;;;8.50;6.25;;;;;;;;5079961;28;45283;-84
2021/09/28 07:38:53;;;;;;;;;10.33;6.67;;;;;;;;5080004;28;45248;-84
2021/09/28 07:41:19;;;;;;;;;7.00;6.25;;;;;;;;5079854;28;45149;-84
2021/09/28 07:43:45;;;;;;;;;6.00;5.00;;;;;;;;5061801;28;45326;-84
2021/09/28 07:46:10;;;;;;;;;7.50;6.00;;;;;;;;5061639;28;48723;-84
2021/09/28 07:48:35;;;;;;;;;10.50;7.50;;;;;;;;5061799;28;45217;-84
2021/09/28 07:51:01;;;;;;;;;8.33;7.00;;;;;;;;5080551;28;45228;-84
2021/09/28 07:53:26;;;;;;;;;9.00;8.67;;;;;;;;5081697;28;45355;-84
2021/09/28 07:55:51;;;;;;;;;9.25;7.50;;;;;;;;5065321;28;46651;-85
2021/09/28 07:58:17;;;;;;;;;8.50;7.00;;;;;;;;5067472;28;44780;-84
2021/09/28 08:00:42;;;;;;;;;6.75;6.50;;;;;;;;5068669;28;45329;-85
2021/09/28 08:03:08;;;;;;;;;8.00;7.00;;;;;;;;5065768;28;45488;-85
2021/09/28 08:05:34;;;;;;;;;9.50;7.50;;;;;;;;5083133;28;46182;-85
2021/09/28 08:07:59;;;;;;;;;11.00;9.00;;;;;;;;5083137;28;45458;-85
2021/09/28 08:10:24;;;;;;;;;6.00;6.00;;;;;;;;5064774;28;45430;-85
2021/09/28 08:12:49;;;;;;;;;5.67;4.33;;;;;;;;5082816;28;45362;-85
2021/09/28 08:15:15;;;;;;;;;5.67;5.00;;;;;;;;5082900;28;45623;-85
2021/09/28 08:17:40;;;;;;;;;7.00;5.75;;;;;;;;5083282;28;45232;-85
2021/09/28 08:20:08;;;;;;;;;8.75;7.75;;;;;;;;5065064;28;45246;-85
2021/09/28 08:22:34;;;;;;;;;16.25;8.75;;;;;;;;5083385;28;45489;-85
2021/09/28 08:25:07;;;;;;;;;12.25;10.00;;;;;;;;5064510;28;48467;-85
2021/09/28 08:30:16;;;;;;;;;12.50;9.50;;;;;;;;5083301;28;45248;-86
2021/09/28 08:32:41;;;;;;;;;11.75;9.25;;;;;;;;5064292;28;45265;-85
2021/09/28 08:35:07;;;;;;;;;9.50;7.75;;;;;;;;5082466;28;45323;-85
2021/09/28 08:37:32;;;;;;;;;10.00;7.75;;;;;;;;5064284;28;45398;-85
2021/09/28 08:39:58;;;;;;;;;10.75;10.25;;;;;;;;5064251;28;45458;-85
2021/09/28 08:42:23;;;;;;;;;12.00;9.75;;;;;;;;5082308;28;45311;-85
2021/09/28 08:44:49;;;;;;;;;11.75;10.00;;;;;;;;5082836;28;46051;-85
2021/09/28 08:47:14;;;;;;;;;13.25;9.25;;;;;;;;5084492;28;45220;-85
2021/09/28 08:49:40;;;;;;;;;8.25;8.25;;;;;;;;5084028;28;45191;-85
2021/09/28 08:52:06;;;;;;;;;9.50;9.00;;;;;;;;5083702;28;45295;-85
2021/09/28 08:54:31;;;;;;;;;10.75;9.25;;;;;;;;5082524;28;46315;-85
2021/09/28 08:56:57;;;;;;;;;12.00;10.00;;;;;;;;5081920;28;45434;-85
2021/09/28 08:59:22;;;;;;;;;9.50;9.50;;;;;;;;5082546;28;45435;-85
2021/09/28 09:01:54;;;;;;;;;11.75;10.25;;;;;;;;5081999;28;45430;-85
2021/09/28 09:04:20;;;;;;;;;10.25;8.25;;;;;;;;5080906;28;45354;-85
2021/09/28 09:06:46;;;;;;;;;14.25;9.50;;;;;;;;5081811;28;45298;-85
2021/09/28 09:09:12;;;;;;;;;7.00;5.25;;;;;;;;5064079;28;45407;-85
2021/09/28 09:11:39;;;;;;;;;11.75;9.25;;;;;;;;5063620;28;45367;-85
2021/09/28 09:14:17;;;;;;;;;10.50;9.50;;;;;;;;5063583;28;47091;-85
2021/09/28 09:16:43;;;;;;;;;11.50;9.50;;;;;;;;5081878;28;45384;-85
2021/09/28 09:19:11;;;;;;;;;11.50;9.25;;;;;;;;5082206;28;45264;-85
2021/09/28 09:21:43;;;;;;;;;8.25;7.75;;;;;;;;5081717;28;45256;-85
2021/09/28 09:24:09;;;;;;;;;5.25;5.00;;;;;;;;5081915;28;45384;-85
2021/09/28 09:26:34;;;;;;;;;6.67;5.33;;;;;;;;5081947;28;45292;-85
2021/09/28 09:28:59;;;;;;;;;7.00;6.00;;;;;;;;5064394;28;45258;-85
2021/09/28 09:31:29;;;;;;;;;9.50;7.00;;;;;;;;5066958;28;45182;-85
2021/09/28 09:33:55;;;;;;;;;6.00;5.00;;;;;;;;5084834;28;45370;-85
2021/09/28 09:36:22;;;;;;;;;6.25;3.00;;;;;;;;5063362;28;45943;-85
2021/09/28 09:38:48;;;;;;;;;4.75;4.00;;;;;;;;5081689;28;45351;-85
2021/09/28 09:41:15;;;;;;;;;9.00;5.00;;;;;;;;5081172;28;45238;-85
2021/09/28 09:43:40;;;;;;;;;4.25;4.25;;;;;;;;5063103;28;46422;-85
2021/09/28 09:46:19;;;;;;;;;4.75;4.00;;;;;;;;5063199;28;45757;-85
2021/09/28 09:48:45;;;;;;;;;5.25;3.25;;;;;;;;5081384;28;45358;-85
2021/09/28 09:51:12;;;;;;;;;3.75;3.25;;;;;;;;5081406;28;45363;-86
2021/09/28 09:53:58;;;;;;;;;6.75;5.50;;;;;;;;5062979;28;47224;-85
2021/09/28 09:56:59;;;;;;;;;4.00;3.25;;;;;;;;5080630;28;45275;-85
2021/09/28 09:59:24;;;;;;;;;7.75;4.25;;;;;;;;4979371;28;45437;-85
2021/09/28 10:01:51;;;;;;;;;4.50;4.50;;;;;;;;5059434;28;45305;-85
2021/09/28 10:04:18;;;;;;;;;5.00;3.50;;;;;;;;5081024;28;45297;-85
2021/09/28 10:06:44;;;;;;;;;6.25;4.00;;;;;;;;5063084;28;45280;-85
2021/09/28 10:09:13;;;;;;;;;5.75;5.25;;;;;;;;5081476;28;45253;-85
2021/09/28 10:11:39;;;;;;;;;5.75;3.00;;;;;;;;5081201;28;45760;-85
2021/09/28 10:14:05;;;;;;;;;3.00;3.00;;;;;;;;5049970;28;47827;-85
2021/09/28 10:16:31;;;;;;;;;5.00;3.00;;;;;;;;5084073;28;45311;-85
2021/09/28 10:18:56;;;;;;;;;3.75;2.00;;;;;;;;5086387;28;45430;-84
2021/09/28 10:21:44;;;;;;;;;5.00;2.75;;;;;;;;5101020;28;44761;-85
2021/09/28 10:24:19;;;;;;;;;2.75;2.75;;;;;;;;5087248;28;46118;-85
2021/09/28 10:26:44;;;;;;;;;3.25;2.50;;;;;;;;5063866;28;45436;-85
2021/09/28 10:29:28;;;;;;;;;7.00;4.00;;;;;;;;5081908;28;45218;-85
2021/09/28 10:31:54;;;;;;;;;3.00;2.25;;;;;;;;5049851;28;46285;-85
2021/09/28 10:34:19;;;;;;;;;1.25;1.25;;;;;;;;5080553;28;45955;-85
2021/09/28 10:36:54;;;;;;;;;3.00;1.75;;;;;;;;5062822;28;45197;-85
2021/09/28 10:39:38;;;;;;;;;3.75;2.00;;;;;;;;5080762;28;45169;-85
2021/09/28 10:42:03;;;;;;;;;5.50;1.75;;;;;;;;5080378;28;45371;-85
2021/09/28 10:44:41;;;;;;;;;3.00;2.00;;;;;;;;5062091;28;47565;-85
2021/09/28 10:47:07;;;;;;;;;4.75;3.50;;;;;;;;5080713;28;45565;-85
2021/09/28 10:49:33;;;;;;;;;3.50;2.75;;;;;;;;5061042;28;45408;-85
2021/09/28 10:52:17;;;;;;;;;4.25;1.50;;;;;;;;5080577;28;45244;-85
2021/09/28 10:55:01;;;;;;;;;3.50;1.50;;;;;;;;5062313;28;48380;-85
2021/09/28 10:57:46;;;;;;;;;2.00;2.00;;;;;;;;5061837;28;46062;-85
2021/09/28 11:00:11;;;;;;;;;5.00;3.25;;;;;;;;5080594;28;45227;-85
2021/09/28 11:02:55;;;;;;;;;3.75;2.00;;;;;;;;5082017;28;45628;-85
2021/09/28 11:05:34;;;;;;;;;2.00;2.00;;;;;;;;5083713;28;46037;-85
2021/09/28 11:08:00;;;;;;;;;1.50;1.00;;;;;;;;5063770;28;45351;-84
2021/09/28 11:10:26;;;;;;;;;2.00;2.00;;;;;;;;5080400;28;45369;-84
2021/09/28 11:12:51;;;;;;;;;2.00;2.00;;;;;;;;5061876;28;45249;-85
2021/09/28 11:15:17;;;;;;;;;3.25;1.00;;;;;;;;5080229;28;45207;-85
2021/09/28 11:17:42;;;;;;;;;3.25;3.00;;;;;;;;5080063;28;45282;-84
2021/09/28 11:20:18;;;;;;;;;1.75;1.75;;;;;;;;5080297;28;45234;-84
2021/09/28 11:22:52;;;;;;;;;3.00;1.25;;;;;;;;5061734;28;45534;-85
2021/09/28 11:25:17;;;;;;;;;4.75;1.75;;;;;;;;5079930;28;46393;-84
2021/09/28 11:27:43;;;;;;;;;3.25;2.00;;;;;;;;5080507;28;45237;-85
2021/09/28 11:30:12;;;;;;;;;2.50;2.50;;;;;;;;5065379;28;45280;-87
2021/09/28 11:32:37;;;;;;;;;4.75;3.00;;;;;;;;5065403;28;45640;-84
2021/09/28 11:35:02;;;;;;;;;1.50;1.50;;;;;;;;5065175;28;47505;-84
2021/09/28 11:37:30;;;;;;;;;4.50;1.25;;;;;;;;5083355;28;45300;-83
2021/09/28 11:39:56;;;;;;;;;2.00;1.25;;;;;;;;5065157;28;45379;-83
2021/09/28 11:42:23;;;;;;;;;0.00;0.00;;;;;;;;5082652;28;45456;-83
2021/09/28 11:44:49;;;;;;;;;1.25;1.00;;;;;;;;5082811;28;45449;-83
2021/09/28 11:47:16;;;;;;;;;1.00;1.00;;;;;;;;5083111;28;45402;-83
2021/09/28 11:49:49;;;;;;;;;4.75;1.75;;;;;;;;5083911;28;45473;-82
2021/09/28 11:52:14;;;;;;;;;5.50;2.00;;;;;;;;5083327;28;45466;-83
2021/09/28 11:54:43;;;;;;;;;1.75;0.00;;;;;;;;5082143;28;45400;-83
2021/09/28 11:57:09;;;;;;;;;2.25;2.00;;;;;;;;5082420;28;45552;-83
2021/09/28 11:59:34;;;;;;;;;1.25;1.00;;;;;;;;5083188;28;45814;-82
2021/09/28 12:01:59;;;;;;;;;2.50;0.50;;;;;;;;5082780;28;45417;-83
2021/09/28 12:07:57;;;;;;;;;1.00;1.00;;;;;;;;5083000;28;45442;-83
2021/09/28 12:10:18;;;;;;;;;2.25;2.00;;;;;;;;5082936;28;45535;-82
2021/09/28 12:12:44;;;;;;;;;0.25;0.25;;;;;;;;5082791;28;45532;-83
2021/09/28 12:15:09;;;;;;;;;3.00;1.00;;;;;;;;5082786;28;45422;-83
2021/09/28 12:17:41;;;;;;;;;3.00;1.00;;;;;;;;5064319;28;45685;-83
2021/09/28 12:20:06;;;;;;;;;1.00;1.00;;;;;;;;5082870;28;45341;-83
2021/09/28 12:22:51;;;;;;;;;2.75;0.50;;;;;;;;5081993;28;45272;-83
2021/09/28 12:25:29;;;;;;;;;2.00;1.00;;;;;;;;5080915;28;45672;-83
2021/09/28 12:27:54;;;;;;;;;2.50;1.00;;;;;;;;5081389;28;45145;-83
2021/09/28 12:30:20;;;;;;;;;1.00;1.00;;;;;;;;5081959;28;45243;-83
2021/09/28 12:32:49;;;;;;;;;2.00;1.00;;;;;;;;5081877;28;45597;-83
2021/09/28 12:35:22;;;;;;;;;4.25;2.00;;;;;;;;5083449;28;45325;-83
2021/09/28 12:37:50;;;;;;;;;4.00;2.00;;;;;;;;5082149;28;45507;-82
2021/09/28 12:40:16;;;;;;;;;0.00;0.00;;;;;;;;5081672;28;45501;-83
2021/09/28 12:42:42;;;;;;;;;3.00;2.00;;;;;;;;5081038;28;45380;-83
2021/09/28 12:45:11;;;;;;;;;2.00;0.00;;;;;;;;5081701;28;45252;-83
2021/09/28 12:47:44;;;;;;;;;2.00;1.00;;;;;;;;5082291;28;45298;-82
2021/09/28 12:50:28;;;;;;;;;1.00;1.00;;;;;;;;5064407;28;45264;-82
2021/09/28 12:53:01;;;;;;;;;1.75;0.00;;;;;;;;5081368;28;45178;-83
2021/09/28 12:55:27;;;;;;;;;0.25;0.25;;;;;;;;5081111;28;46306;-83
2021/09/28 12:57:53;;;;;;;;;1.50;1.00;;;;;;;;5062765;28;45328;-83
2021/09/28 13:00:19;;;;;;;;;2.75;1.25;;;;;;;;5081201;28;45300;-83
2021/09/28 13:02:46;;;;;;;;;1.00;1.00;;;;;;;;5081039;28;45179;-83
2021/09/28 13:05:12;;;;;;;;;1.00;1.00;;;;;;;;5081025;28;45308;-83
2021/09/28 13:07:41;;;;;;;;;4.00;1.00;;;;;;;;5080938;28;45439;-83
2021/09/28 13:10:07;;;;;;;;;1.75;1.00;;;;;;;;5080831;28;45429;-83
2021/09/28 13:12:32;;;;;;;;;6.00;1.00;;;;;;;;5080833;28;45240;-82
2021/09/28 13:14:57;;;;;;;;;0.25;0.00;;;;;;;;5080702;28;45359;-82
2021/09/28 13:17:22;;;;;;;;;0.75;0.75;;;;;;;;5080824;28;45194;-83
2021/09/28 13:19:48;;;;;;;;;1.00;1.00;;;;;;;;5081056;28;45162;-82
2021/09/28 13:22:13;;;;;;;;;2.75;1.00;;;;;;;;5042883;28;1146151;-83
2021/09/28 13:24:38;;;;;;;;;1.00;1.00;;;;;;;;5083666;28;45655;-82
2021/09/28 13:27:03;;;;;;;;;2.25;1.00;;;;;;;;5081884;28;45302;-83
2021/09/28 13:29:29;;;;;;;;;3.00;2.00;;;;;;;;5081969;28;45417;-83
2021/09/28 13:31:54;;;;;;;;;1.33;1.33;;;;;;;;5081977;28;45293;-82
2021/09/28 13:34:19;;;;;;;;;1.75;0.00;;;;;;;;5081515;28;45247;-82
2021/09/28 13:36:44;;;;;;;;;2.00;1.00;;;;;;;;5081661;28;45275;-83
2021/09/28 13:39:10;;;;;;;;;1.50;0.50;;;;;;;;5081771;28;45207;-83
2021/09/28 13:41:35;;;;;;;;;3.00;1.00;;;;;;;;5081636;28;45200;-82
2021/09/28 13:44:01;;;;;;;;;3.00;0.75;;;;;;;;5064421;28;46214;-83
2021/09/28 13:46:26;;;;;;;;;2.50;2.00;;;;;;;;5081588;28;45236;-82
2021/09/28 13:48:52;;;;;;;;;6.75;3.25;;;;;;;;5085899;28;45393;-82
2021/09/28 13:51:17;;;;;;;;;1.50;1.00;;;;;;;;5076767;28;45300;-82
2021/09/28 13:53:42;;;;;;;;;5.33;1.67;;;;;;;;5086136;28;45536;-82
2021/09/28 13:56:07;;;;;;;;;0.33;0.00;;;;;;;;5062945;28;45436;-83
2021/09/28 13:58:33;;;;;;;;;5.00;0.00;;;;;;;;5081692;28;45456;-82
2021/09/28 14:00:58;;;;;;;;;0.00;0.00;;;;;;;;5063274;28;45293;-85
2021/09/28 14:03:24;;;;;;;;;4.00;0.00;;;;;;;;5062886;28;48204;-82
2021/09/28 14:05:49;;;;;;;;;4.00;1.00;;;;;;;;5081262;28;45431;-82
2021/09/28 14:08:14;;;;;;;;;3.50;2.00;;;;;;;;5078089;28;45342;-83
2021/09/28 14:10:40;;;;;;;;;0.00;0.00;;;;;;;;5079028;28;45386;-81
2021/09/28 14:13:05;;;;;;;;;2.00;1.00;;;;;;;;5063115;28;47067;-81
2021/09/28 14:15:31;;;;;;;;;1.33;1.00;;;;;;;;5077797;28;45461;-83
2021/09/28 14:17:56;;;;;;;;;3.00;0.75;;;;;;;;5077562;28;45330;-83
2021/09/28 14:20:21;;;;;;;;;0.50;0.50;;;;;;;;5062689;28;45228;-83
2021/09/28 14:22:47;;;;;;;;;1.25;1.00;;;;;;;;5080774;28;45235;-84
2021/09/28 14:25:12;;;;;;;;;1.25;0.00;;;;;;;;5062361;28;45338;-84
2021/09/28 14:27:37;;;;;;;;;0.25;0.25;;;;;;;;5080972;28;45456;-83
2021/09/28 14:30:03;;;;;;;;;3.33;0.00;;;;;;;;5080752;28;45457;-83
2021/09/28 14:32:28;;;;;;;;;0.50;0.50;;;;;;;;5080496;28;45240;-83
2021/09/28 14:34:54;;;;;;;;;3.67;1.00;;;;;;;;5080757;28;45278;-83
2021/09/28 14:37:19;;;;;;;;;2.00;1.00;;;;;;;;5080861;28;45315;-83
2021/09/28 14:39:45;;;;;;;;;2.75;1.00;;;;;;;;5080573;28;45215;-83
2021/09/28 14:42:10;;;;;;;;;7.67;2.00;;;;;;;;5062075;28;46967;-83